Time;durP1;ratioP1;P1;durP2;ratioP2;P2;SDS_P1;SDS_P2;PMS_P1;PMS_P2;Temp;Humidity;BMP_temperature;BMP_pressure;BME280_temperature;BME280_humidity;BME280_pressure;Samples;Min_cycle;Max_cycle;Signal;HPM_P1;HPM_P2
2023/08/08 00:01:32;;;;;;;0.10;0.10;;;;;;;13.85;100.00;99100.34;5094994;28;20215;-56
2023/08/08 00:04:18;;;;;;;0.10;0.10;;;;;;;13.92;100.00;99095.38;5096431;28;20191;-55
2023/08/08 00:07:06;;;;;;;0.10;0.10;;;;;;;14.16;100.00;99098.75;5096427;28;20210;-55
2023/08/08 00:09:52;;;;;;;0.10;0.10;;;;;;;14.31;100.00;99099.38;5096462;28;20233;-56
2023/08/08 00:12:39;;;;;;;0.10;0.10;;;;;;;13.99;100.00;99096.56;5096321;28;20179;-55
2023/08/08 00:15:26;;;;;;;0.10;0.10;;;;;;;13.99;100.00;99094.78;5094900;28;20209;-56
2023/08/08 00:18:14;;;;;;;0.10;0.10;;;;;;;13.97;100.00;99094.03;5096182;28;20199;-56
2023/08/08 00:21:01;;;;;;;0.10;0.10;;;;;;;13.81;100.00;99090.06;5096161;28;20207;-55
2023/08/08 00:23:48;;;;;;;0.10;0.10;;;;;;;13.84;100.00;99097.81;5095945;28;20211;-55
2023/08/08 00:26:35;;;;;;;0.10;0.10;;;;;;;13.89;100.00;99088.47;5096117;28;20199;-56
2023/08/08 00:29:22;;;;;;;0.10;0.10;;;;;;;13.75;100.00;99089.56;5095012;28;20202;-56
2023/08/08 00:32:09;;;;;;;0.10;0.10;;;;;;;13.95;100.00;99093.31;5094935;28;20194;-56
2023/08/08 00:34:57;;;;;;;0.17;0.17;;;;;;;13.86;100.00;99085.22;5095780;28;20222;-56
2023/08/08 00:37:44;;;;;;;0.10;0.10;;;;;;;13.91;100.00;99077.72;5094868;28;20202;-56
2023/08/08 00:40:31;;;;;;;0.10;0.10;;;;;;;13.87;100.00;99074.44;5095760;28;20298;-56
2023/08/08 00:43:18;;;;;;;0.10;0.10;;;;;;;13.84;100.00;99068.53;5094792;28;20310;-55
2023/08/08 00:46:05;;;;;;;0.10;0.10;;;;;;;13.75;100.00;99070.09;5093366;28;20248;-55
2023/08/08 00:48:52;;;;;;;0.10;0.10;;;;;;;13.61;100.00;99079.16;5095604;28;20277;-55
2023/08/08 00:51:41;;;;;;;0.10;0.10;;;;;;;13.62;100.00;99061.38;5094179;28;20199;-55
2023/08/08 00:54:28;;;;;;;0.10;0.10;;;;;;;13.62;100.00;99064.03;5095534;28;20224;-55
2023/08/08 00:57:15;;;;;;;0.10;0.10;;;;;;;13.53;100.00;99062.09;5094465;28;20199;-55
2023/08/08 01:00:02;;;;;;;0.10;0.10;;;;;;;13.48;100.00;99065.09;5095340;28;20190;-55
2023/08/08 01:02:49;;;;;;;0.10;0.10;;;;;;;13.42;100.00;99063.78;5095092;28;20222;-56
2023/08/08 01:05:43;;;;;;;0.10;0.10;;;;;;;13.36;100.00;99060.72;5094275;28;20207;-56
2023/08/08 01:08:40;;;;;;;0.10;0.10;;;;;;;13.28;100.00;99069.28;5095110;28;20301;-55
2023/08/08 01:11:29;;;;;;;0.10;0.10;;;;;;;13.35;100.00;99059.03;5095303;28;20233;-55
2023/08/08 01:14:18;;;;;;;0.10;0.10;;;;;;;13.30;100.00;99058.53;5094152;28;20194;-55
2023/08/08 01:17:06;;;;;;;0.10;0.10;;;;;;;13.27;100.00;99059.63;5092640;28;20191;-55
2023/08/08 01:19:53;;;;;;;0.10;0.10;;;;;;;13.21;100.00;99049.44;5094922;28;20199;-55
2023/08/08 01:22:44;;;;;;;0.10;0.10;;;;;;;13.29;100.00;99055.03;5094703;28;20223;-55
2023/08/08 01:25:32;;;;;;;0.10;0.10;;;;;;;13.25;100.00;99056.22;5094825;28;20199;-55
2023/08/08 01:28:22;;;;;;;0.10;0.10;;;;;;;13.20;100.00;99047.75;5094863;28;20198;-56
2023/08/08 01:31:09;;;;;;;0.10;0.10;;;;;;;13.18;100.00;99042.50;5093599;28;20297;-55
2023/08/08 01:33:56;;;;;;;0.10;0.10;;;;;;;13.21;100.00;99035.28;5094580;28;20199;-55
2023/08/08 01:36:47;;;;;;;0.10;0.10;;;;;;;13.16;100.00;99027.66;5094244;28;20245;-55
2023/08/08 01:39:36;;;;;;;0.10;0.10;;;;;;;13.29;100.00;99036.41;5093671;28;20265;-55
2023/08/08 01:42:25;;;;;;;0.10;0.10;;;;;;;13.29;100.00;99036.41;5093458;28;20222;-55
2023/08/08 01:45:12;;;;;;;0.10;0.10;;;;;;;13.23;100.00;99034.22;5092695;28;20198;-56
2023/08/08 01:47:59;;;;;;;0.10;0.10;;;;;;;13.35;100.00;99033.28;5094415;28;20203;-56
2023/08/08 01:50:47;;;;;;;0.10;0.10;;;;;;;13.18;100.00;99031.03;5093360;28;20195;-55
2023/08/08 01:53:34;;;;;;;0.10;0.10;;;;;;;13.18;100.00;99028.38;5093272;28;20309;-55
2023/08/08 01:56:21;;;;;;;0.10;0.10;;;;;;;13.15;100.00;99028.63;5094313;28;20190;-55
2023/08/08 01:59:10;;;;;;;0.10;0.10;;;;;;;13.19;100.00;99038.06;5093238;28;20700;-55
2023/08/08 02:02:00;;;;;;;0.10;0.10;;;;;;;13.13;100.00;99034.06;5091455;28;20344;-55
2023/08/08 02:04:48;;;;;;;0.10;0.10;;;;;;;13.13;100.00;99027.91;5093937;28;20304;-56
2023/08/08 02:07:35;;;;;;;0.10;0.10;;;;;;;13.12;100.00;99029.72;5094178;28;20221;-55
2023/08/08 02:10:21;;;;;;;0.10;0.10;;;;;;;13.07;100.00;99023.03;5094095;28;20270;-55
2023/08/08 02:13:08;;;;;;;0.10;0.10;;;;;;;13.04;100.00;99026.78;5092938;28;20312;-55
2023/08/08 02:15:57;;;;;;;0.10;0.10;;;;;;;13.03;100.00;99026.91;5092846;28;20193;-55
2023/08/08 02:18:45;;;;;;;0.10;0.10;;;;;;;13.00;100.00;99024.44;5093818;28;20636;-55
2023/08/08 02:21:32;;;;;;;0.10;0.10;;;;;;;13.02;100.00;99030.50;5093613;28;20306;-55
2023/08/08 02:24:19;;;;;;;0.10;0.10;;;;;;;13.02;100.00;99036.66;5093788;28;20198;-55
2023/08/08 02:27:06;;;;;;;0.10;0.10;;;;;;;13.04;100.00;99033.91;5092728;28;20194;-55
2023/08/08 02:29:53;;;;;;;0.10;0.10;;;;;;;13.13;100.00;99039.38;5092484;28;20370;-55
2023/08/08 02:32:42;;;;;;;0.10;0.10;;;;;;;13.08;100.00;99043.34;5093699;28;20261;-56
2023/08/08 02:35:29;;;;;;;0.10;0.10;;;;;;;13.12;100.00;99039.47;5092315;28;20747;-56
2023/08/08 02:38:16;;;;;;;0.10;0.10;;;;;;;13.06;100.00;99029.31;5093201;28;20248;-55
2023/08/08 02:41:04;;;;;;;0.10;0.10;;;;;;;13.08;100.00;99030.03;5093478;28;20221;-55
2023/08/08 02:43:52;;;;;;;0.10;0.10;;;;;;;12.97;100.00;99025.53;5093025;28;20220;-55
2023/08/08 02:46:38;;;;;;;0.10;0.10;;;;;;;12.90;100.00;99032.28;5091857;28;20198;-55
2023/08/08 02:49:28;;;;;;;0.10;0.10;;;;;;;12.85;100.00;99031.78;5092413;28;20202;-55
2023/08/08 02:52:15;;;;;;;0.10;0.10;;;;;;;12.74;100.00;99043.25;5092359;28;20264;-56
2023/08/08 02:55:02;;;;;;;0.10;0.10;;;;;;;12.56;100.00;99034.81;5092112;28;20197;-55
2023/08/08 02:57:49;;;;;;;0.10;0.10;;;;;;;12.56;100.00;99031.31;5092186;28;20194;-55
2023/08/08 03:00:36;;;;;;;0.10;0.10;;;;;;;12.52;100.00;99035.16;5090813;28;20261;-55
2023/08/08 03:03:27;;;;;;;0.10;0.10;;;;;;;12.43;100.00;99038.47;5091732;28;20223;-55
2023/08/08 03:06:16;;;;;;;0.10;0.10;;;;;;;12.43;100.00;99047.28;5092297;28;20370;-55
2023/08/08 03:09:03;;;;;;;0.10;0.10;;;;;;;12.39;100.00;99059.13;5092159;28;20202;-56
2023/08/08 03:11:50;;;;;;;0.10;0.10;;;;;;;12.48;100.00;99060.25;5092007;28;20241;-56
2023/08/08 03:14:37;;;;;;;0.10;0.10;;;;;;;12.38;100.00;99052.09;5092478;28;20202;-56
2023/08/08 03:17:24;;;;;;;0.10;0.10;;;;;;;12.51;100.00;99052.91;5091725;28;20191;-55
2023/08/08 03:20:12;;;;;;;0.10;0.10;;;;;;;12.57;100.00;99047.13;5092989;28;20199;-55
2023/08/08 03:23:00;;;;;;;0.10;0.10;;;;;;;12.73;100.00;99045.97;5091890;28;20276;-56
2023/08/08 03:25:48;;;;;;;0.10;0.10;;;;;;;12.67;100.00;99035.84;5092017;28;20198;-56
2023/08/08 03:28:36;;;;;;;0.10;0.10;;;;;;;12.75;100.00;99044.09;5092001;28;20203;-55
2023/08/08 03:31:23;;;;;;;0.10;0.10;;;;;;;12.76;100.00;99035.16;5091615;28;20191;-55
2023/08/08 03:34:10;;;;;;;0.10;0.10;;;;;;;12.88;100.00;99028.91;5091878;28;20195;-55
2023/08/08 03:36:58;;;;;;;0.07;0.07;;;;;;;12.76;100.00;99043.13;5091897;28;20195;-56
2023/08/08 03:39:46;;;;;;;0.10;0.10;;;;;;;12.64;100.00;99036.03;5092836;28;20194;-56
2023/08/08 03:42:33;;;;;;;0.10;0.10;;;;;;;12.89;100.00;99039.41;5092671;28;20973;-55
2023/08/08 03:45:21;;;;;;;0.10;0.10;;;;;;;13.03;100.00;99037.53;5090582;28;20262;-56
2023/08/08 03:48:07;;;;;;;0.10;0.10;;;;;;;12.79;100.00;99030.44;5092690;28;20194;-56
2023/08/08 03:50:54;;;;;;;0.10;0.10;;;;;;;12.70;100.00;99033.78;5092790;28;20191;-56
2023/08/08 03:53:41;;;;;;;0.10;0.10;;;;;;;12.52;100.00;99041.31;5091739;28;20187;-56
2023/08/08 03:56:30;;;;;;;0.10;0.10;;;;;;;12.26;100.00;99045.03;5092639;28;20215;-56
2023/08/08 03:59:16;;;;;;;0.10;0.10;;;;;;;12.15;100.00;99048.44;5091625;28;20190;-56
2023/08/08 04:02:04;;;;;;;0.10;0.10;;;;;;;12.08;100.00;99049.03;5091317;28;20237;-56
2023/08/08 04:04:52;;;;;;;0.10;0.10;;;;;;;12.01;100.00;99048.59;5091616;28;20195;-55
2023/08/08 04:07:39;;;;;;;0.10;0.10;;;;;;;12.12;100.00;99055.81;5091568;28;20195;-56
2023/08/08 04:10:25;;;;;;;0.10;0.10;;;;;;;11.94;100.00;99060.63;5092539;28;20191;-56
2023/08/08 04:13:14;;;;;;;0.10;0.10;;;;;;;12.08;100.00;99062.31;5092479;28;20288;-55
2023/08/08 04:16:01;;;;;;;0.10;0.10;;;;;;;12.48;100.00;99057.59;5091094;28;20542;-56
2023/08/08 04:18:48;;;;;;;0.10;0.10;;;;;;;12.33;100.00;99052.44;5092501;28;20195;-55
2023/08/08 04:21:35;;;;;;;0.10;0.10;;;;;;;12.14;100.00;99054.72;5092395;28;20233;-56
2023/08/08 04:24:22;;;;;;;0.10;0.10;;;;;;;12.03;100.00;99055.50;5092117;28;20257;-56
2023/08/08 04:27:09;;;;;;;0.00;0.00;;;;;;;11.95;100.00;99055.19;5095992;28;20348;-56
2023/08/08 04:29:58;;;;;;;0.10;0.10;;;;;;;12.00;100.00;99057.53;5095965;28;20195;-55
2023/08/08 04:32:45;;;;;;;0.10;0.10;;;;;;;12.24;100.00;99050.44;5095978;28;20191;-56
2023/08/08 04:35:31;;;;;;;0.10;0.10;;;;;;;12.15;100.00;99048.44;5095551;28;20268;-56
2023/08/08 04:38:18;;;;;;;0.10;0.10;;;;;;;12.29;100.00;99039.50;5095794;28;20199;-56
2023/08/08 04:41:05;;;;;;;0.10;0.10;;;;;;;12.12;100.00;99043.38;5095905;28;20195;-56
2023/08/08 04:43:52;;;;;;;0.10;0.10;;;;;;;12.12;100.00;99045.19;5095497;28;20219;-56
2023/08/08 04:46:41;;;;;;;0.10;0.10;;;;;;;12.10;100.00;99028.53;5094457;28;20209;-56
2023/08/08 04:49:28;;;;;;;0.10;0.10;;;;;;;12.09;100.00;99027.66;5095536;28;20326;-56
2023/08/08 04:52:15;;;;;;;0.10;0.10;;;;;;;12.03;100.00;99028.94;5095650;28;20199;-56
2023/08/08 04:55:02;;;;;;;0.10;0.10;;;;;;;11.74;100.00;99025.69;5095557;28;20190;-56
2023/08/08 04:57:49;;;;;;;0.10;0.10;;;;;;;12.15;100.00;99027.22;5095635;28;20400;-56
2023/08/08 05:00:36;;;;;;;0.10;0.10;;;;;;;11.80;100.00;99021.81;5093992;28;20542;-56
2023/08/08 05:03:24;;;;;;;0.10;0.10;;;;;;;11.71;100.00;99010.00;5094862;28;20265;-56
2023/08/08 05:06:11;;;;;;;0.10;0.10;;;;;;;11.56;100.00;99004.91;5094369;28;20222;-56
2023/08/08 05:08:58;;;;;;;0.10;0.10;;;;;;;11.53;100.00;99002.50;5095263;28;20211;-56
2023/08/08 05:11:45;;;;;;;0.10;0.10;;;;;;;11.62;100.00;99015.09;5095030;28;20214;-56
2023/08/08 05:14:32;;;;;;;0.10;0.10;;;;;;;11.93;100.00;99022.59;5094947;28;20199;-56
2023/08/08 05:17:19;;;;;;;0.10;0.10;;;;;;;11.94;100.00;99045.53;5093859;28;20199;-56
2023/08/08 05:20:09;;;;;;;0.10;0.10;;;;;;;11.77;100.00;99048.50;5095102;28;20190;-56
2023/08/08 05:22:56;;;;;;;0.10;0.10;;;;;;;11.76;100.00;99046.81;5095013;28;20209;-56
2023/08/08 05:25:43;;;;;;;0.10;0.10;;;;;;;11.89;100.00;99037.06;5095116;28;20194;-56
2023/08/08 05:28:30;;;;;;;0.10;0.10;;;;;;;12.12;100.00;99046.03;5094880;28;20203;-56
2023/08/08 05:31:17;;;;;;;0.10;0.10;;;;;;;12.05;100.00;99036.81;5093501;28;20198;-56
2023/08/08 05:34:04;;;;;;;0.10;0.10;;;;;;;12.25;100.00;99036.19;5094696;28;20202;-56
2023/08/08 05:36:52;;;;;;;0.10;0.10;;;;;;;12.26;100.00;99034.44;5093537;28;20300;-55
2023/08/08 05:39:59;;;;;;;0.10;0.10;;;;;;;12.37;100.00;99028.31;5094503;28;20222;-56
2023/08/08 05:42:46;;;;;;;0.10;0.10;;;;;;;12.52;100.00;99022.72;5094667;28;20191;-56
2023/08/08 05:45:33;;;;;;;0.10;0.10;;;;;;;12.58;100.00;99024.06;5092779;28;20337;-55
2023/08/08 05:48:20;;;;;;;0.10;0.10;;;;;;;12.81;100.00;99017.03;5094373;28;20228;-55
2023/08/08 05:51:07;;;;;;;0.10;0.10;;;;;;;12.76;100.00;99022.69;5094612;28;20210;-56
2023/08/08 05:53:55;;;;;;;0.10;0.10;;;;;;;12.81;100.00;99017.03;5094383;28;20198;-56
2023/08/08 05:56:44;;;;;;;0.10;0.10;;;;;;;12.58;100.00;99018.75;5093229;28;20202;-55
2023/08/08 05:59:31;;;;;;;0.10;0.10;;;;;;;12.93;100.00;99020.56;5094241;28;20195;-56
2023/08/08 06:02:17;;;;;;;0.10;0.10;;;;;;;12.93;100.00;99016.09;5092675;28;20199;-56
2023/08/08 06:05:05;;;;;;;0.10;0.10;;;;;;;13.06;100.00;99013.38;5092224;28;20222;-56
2023/08/08 06:07:51;;;;;;;0.10;0.10;;;;;;;13.06;100.00;99010.72;5093117;28;20195;-56
2023/08/08 06:10:40;;;;;;;0.07;0.07;;;;;;;12.99;100.00;99012.13;5093969;28;20394;-56
2023/08/08 06:13:27;;;;;;;0.10;0.10;;;;;;;13.11;100.00;99003.19;5093981;28;20190;-56
2023/08/08 06:16:14;;;;;;;0.10;0.10;;;;;;;13.29;100.00;99012.47;5092595;28;20233;-56
2023/08/08 06:19:01;;;;;;;0.10;0.10;;;;;;;13.27;100.00;99005.56;5093955;28;20198;-56
2023/08/08 06:21:48;;;;;;;0.10;0.10;;;;;;;13.33;100.00;99016.59;5093910;28;20186;-56
2023/08/08 06:24:35;;;;;;;0.10;0.10;;;;;;;13.40;100.00;99009.81;5093571;28;20221;-56
2023/08/08 06:27:24;;;;;;;0.10;0.10;;;;;;;13.83;100.00;99001.13;5093314;28;20198;-56
2023/08/08 06:30:11;;;;;;;0.10;0.10;;;;;;;13.94;100.00;99011.75;5090902;28;20203;-56
2023/08/08 06:32:58;;;;;;;0.10;0.10;;;;;;;14.15;100.00;99005.66;5092277;28;20233;-56
2023/08/08 06:35:45;;;;;;;0.10;0.10;;;;;;;14.48;100.00;99002.09;5093396;28;20229;-55
2023/08/08 06:38:33;;;;;;;0.10;0.10;;;;;;;14.77;100.00;98973.00;5093581;28;20194;-55
2023/08/08 06:41:20;;;;;;;0.10;0.10;;;;;;;15.06;100.00;98973.22;5093554;28;20267;-56
2023/08/08 06:44:10;;;;;;;0.00;0.00;;;;;;;15.15;100.00;98954.59;5093370;28;20217;-56
2023/08/08 06:46:57;;;;;;;0.10;0.10;;;;;;;15.35;100.00;98957.34;5092150;28;20261;-56
2023/08/08 06:49:44;;;;;;;0.10;0.10;;;;;;;15.42;100.00;98947.81;5093367;28;20230;-56
2023/08/08 06:52:31;;;;;;;0.10;0.10;;;;;;;15.55;100.00;98959.13;5093400;28;20261;-56
2023/08/08 06:55:18;;;;;;;0.10;0.10;;;;;;;15.71;100.00;98945.28;5093286;28;20260;-56
2023/08/08 06:58:05;;;;;;;0.10;0.10;;;;;;;15.83;100.00;98946.88;5093334;28;20273;-56
2023/08/08 07:00:53;;;;;;;0.10;0.10;;;;;;;15.87;100.00;98940.28;5091930;28;20194;-56
2023/08/08 07:03:40;;;;;;;0.10;0.10;;;;;;;16.07;100.00;98943.00;5093148;28;20202;-56
2023/08/08 07:06:28;;;;;;;0.10;0.10;;;;;;;16.14;100.00;98944.13;5093216;28;20199;-56
2023/08/08 07:09:15;;;;;;;0.10;0.10;;;;;;;16.25;100.00;98946.69;5093205;28;20618;-56
2023/08/08 07:12:02;;;;;;;0.10;0.10;;;;;;;16.23;100.00;98944.16;5093103;28;20273;-56
2023/08/08 07:14:49;;;;;;;0.10;0.10;;;;;;;16.37;100.00;98921.50;5093121;28;20677;-56
2023/08/08 07:17:37;;;;;;;0.10;0.10;;;;;;;16.54;100.00;98926.13;5093007;28;20666;-55
2023/08/08 07:20:24;;;;;;;0.10;0.10;;;;;;;16.70;100.00;98922.09;5092976;28;20190;-56
2023/08/08 07:23:11;;;;;;;0.10;0.10;;;;;;;16.67;100.00;98925.84;5093043;28;20186;-56
2023/08/08 07:25:58;;;;;;;0.10;0.10;;;;;;;16.80;100.00;98917.56;5092565;28;20215;-55
2023/08/08 07:28:45;;;;;;;0.10;0.10;;;;;;;17.00;100.00;98915.69;5092931;28;20199;-56
2023/08/08 07:31:32;;;;;;;0.10;0.10;;;;;;;17.12;100.00;98926.06;5091632;28;20199;-56
2023/08/08 07:34:20;;;;;;;0.00;0.00;;;;;;;17.07;100.00;98922.13;5093001;28;20280;-56
2023/08/08 07:37:07;;;;;;;0.10;0.10;;;;;;;17.26;100.00;98927.41;5092927;28;20286;-56
2023/08/08 07:39:54;;;;;;;0.10;0.10;;;;;;;17.30;100.00;98926.16;5092768;28;20190;-56
2023/08/08 07:42:41;;;;;;;0.10;0.10;;;;;;;17.16;100.00;98924.78;5092798;28;20199;-56
2023/08/08 07:45:28;;;;;;;0.10;0.10;;;;;;;17.04;100.00;98925.09;5091289;28;20297;-56
2023/08/08 07:48:15;;;;;;;0.10;0.10;;;;;;;17.19;100.00;98912.13;5092880;28;20206;-55
2023/08/08 07:51:04;;;;;;;0.00;0.00;;;;;;;17.37;100.00;98913.88;5092618;28;20195;-56
2023/08/08 07:53:51;;;;;;;0.00;0.00;;;;;;;17.48;100.00;98915.53;5092712;28;20720;-56
2023/08/08 07:56:38;;;;;;;0.07;0.07;;;;;;;17.52;100.00;98916.06;5092691;28;20187;-56
2023/08/08 07:59:25;;;;;;;0.10;0.10;;;;;;;17.60;100.00;98916.16;5092811;28;20187;-56
2023/08/08 08:02:11;;;;;;;0.10;0.10;;;;;;;17.80;100.00;98906.22;5095176;28;20222;-55
2023/08/08 08:04:58;;;;;;;0.10;0.10;;;;;;;17.89;100.00;98908.84;5095899;28;20218;-55
2023/08/08 08:07:47;;;;;;;0.10;0.10;;;;;;;17.61;100.00;98910.66;5096322;28;20681;-56
2023/08/08 08:10:33;;;;;;;0.00;0.00;;;;;;;17.62;100.00;98914.16;5095395;28;20194;-55
2023/08/08 08:13:20;;;;;;;0.10;0.10;;;;;;;17.52;100.00;98911.53;5095715;28;20193;-55
2023/08/08 08:16:07;;;;;;;0.00;0.00;;;;;;;17.63;100.00;98919.38;5094848;28;20318;-55
2023/08/08 08:18:54;;;;;;;0.10;0.10;;;;;;;17.85;100.00;98912.78;5096251;28;20669;-55
2023/08/08 08:21:41;;;;;;;0.00;0.00;;;;;;;18.14;100.00;98906.38;5096182;28;20206;-56
2023/08/08 08:24:30;;;;;;;0.10;0.10;;;;;;;18.29;100.00;98908.41;5096010;28;20199;-56
2023/08/08 08:27:17;;;;;;;0.10;0.10;;;;;;;18.29;100.00;98916.44;5096183;28;20674;-56
2023/08/08 08:30:05;;;;;;;0.10;0.10;;;;;;;18.06;100.00;98909.84;5094675;28;20313;-56
2023/08/08 08:32:51;;;;;;;0.10;0.10;;;;;;;18.45;100.00;98913.09;5096011;28;20226;-56
2023/08/08 08:35:38;;;;;;;0.00;0.00;;;;;;;18.69;100.00;98898.19;5095709;28;20231;-56
2023/08/08 08:38:25;;;;;;;0.07;0.07;;;;;;;18.68;100.00;98900.03;5095897;28;20195;-56
2023/08/08 08:41:18;;;;;;;0.00;0.00;;;;;;;19.01;100.00;98895.75;5095594;28;20597;-56
2023/08/08 08:44:06;;;;;;;0.00;0.00;;;;;;;19.22;100.00;98898.06;5095865;28;20195;-56
2023/08/08 08:46:53;;;;;;;0.10;0.10;;;;;;;19.29;100.00;98904.47;5094049;28;20743;-56
2023/08/08 08:49:43;;;;;;;0.10;0.10;;;;;;;19.28;100.00;98905.47;5095473;28;20226;-56
2023/08/08 08:52:29;;;;;;;0.10;0.10;;;;;;;19.25;100.00;98902.28;5095637;28;20191;-56
2023/08/08 08:55:17;;;;;;;0.00;0.00;;;;;;;19.31;100.00;98904.31;5095646;28;20195;-56
2023/08/08 08:58:06;;;;;;;0.00;0.00;;;;;;;19.56;100.00;98907.97;5095268;28;20644;-56
2023/08/08 09:00:55;;;;;;;0.10;0.10;;;;;;;19.86;100.00;98903.91;5094254;28;20704;-56
2023/08/08 09:03:44;;;;;;;0.10;0.10;;;;;;;19.97;100.00;98904.41;5095221;28;20207;-56
2023/08/08 09:06:32;;;;;;;0.00;0.00;;;;;;;19.93;100.00;98897.69;5095180;28;20214;-56
2023/08/08 09:09:21;;;;;;;0.07;0.07;;;;;;;19.96;100.00;98896.53;5095213;28;20546;-56
2023/08/08 09:12:08;;;;;;;0.10;0.10;;;;;;;20.02;100.00;98888.66;5094007;28;20206;-56
2023/08/08 09:14:57;;;;;;;0.10;0.10;;;;;;;20.01;100.00;98873.53;5094872;28;20199;-57
2023/08/08 09:17:45;;;;;;;0.00;0.00;;;;;;;20.02;100.00;98888.66;5095242;28;20202;-56
2023/08/08 09:20:35;;;;;;;0.00;0.00;;;;;;;19.92;100.00;98887.13;5095155;28;20266;-56
2023/08/08 09:23:22;;;;;;;0.00;0.00;;;;;;;19.40;100.00;98889.94;5094983;28;20198;-56
2023/08/08 09:26:09;;;;;;;0.10;0.10;;;;;;;19.46;100.00;98875.84;5094774;28;20337;-56
2023/08/08 09:28:55;;;;;;;0.00;0.00;;;;;;;19.33;100.00;98865.56;5095276;28;20677;-55
2023/08/08 09:31:44;;;;;;;0.10;0.10;;;;;;;19.30;100.00;98882.00;5093522;28;20194;-56
2023/08/08 09:34:31;;;;;;;0.00;0.00;;;;;;;19.16;100.00;98882.59;5094721;28;20210;-55
2023/08/08 09:37:20;;;;;;;0.10;0.10;;;;;;;19.26;100.00;98875.25;5094628;28;20294;-56
2023/08/08 09:40:10;;;;;;;0.10;0.10;;;;;;;19.40;100.00;98877.34;5094681;28;20268;-56
2023/08/08 09:42:59;;;;;;;0.00;0.00;;;;;;;19.89;100.00;98868.63;5094669;28;20198;-56
2023/08/08 09:45:48;;;;;;;0.00;0.00;;;;;;;19.83;100.00;98862.06;5093146;28;20223;-56
2023/08/08 09:48:39;;;;;;;0.10;0.10;;;;;;;20.43;100.00;98866.38;5094600;28;20194;-56
2023/08/08 09:51:26;;;;;;;0.00;0.00;;;;;;;20.91;100.00;98867.34;5094859;28;20639;-56
2023/08/08 09:54:14;;;;;;;0.10;0.10;;;;;;;21.15;100.00;98872.69;5094129;28;20237;-56
2023/08/08 09:57:02;;;;;;;0.00;0.00;;;;;;;20.88;95.01;98868.53;5094438;28;20253;-56
2023/08/08 09:59:49;;;;;;;0.10;0.10;;;;;;;20.35;96.94;98866.31;5093245;28;20198;-56
2023/08/08 10:02:36;;;;;;;0.10;0.10;;;;;;;20.14;100.00;98866.81;5093966;28;20207;-56
2023/08/08 10:05:26;;;;;;;0.00;0.00;;;;;;;20.32;100.00;98862.13;5094170;28;20210;-56
2023/08/08 10:08:16;;;;;;;0.10;0.10;;;;;;;20.58;91.74;98864.69;5094043;28;20198;-56
2023/08/08 10:11:03;;;;;;;0.10;0.10;;;;;;;20.72;83.63;98860.47;5093897;28;20686;-56
2023/08/08 10:13:53;;;;;;;0.00;0.00;;;;;;;20.83;86.78;98871.72;5094148;28;20183;-56
2023/08/08 10:16:42;;;;;;;0.10;0.10;;;;;;;20.67;88.55;98866.38;5092691;28;20190;-56
2023/08/08 10:19:32;;;;;;;0.00;0.00;;;;;;;20.49;89.88;98863.00;5093904;28;20194;-56
2023/08/08 10:22:24;;;;;;;0.10;0.10;;;;;;;20.49;93.27;98865.69;5093641;28;20203;-56
2023/08/08 10:25:19;;;;;;;0.10;0.10;;;;;;;20.51;95.70;98860.97;5093850;28;20202;-56
2023/08/08 10:28:10;;;;;;;0.07;0.07;;;;;;;21.22;89.32;98878.19;5093763;28;20199;-56
2023/08/08 10:31:20;;;;;;;0.10;0.10;;;;;;;21.75;84.47;98852.41;5092453;28;20266;-57
2023/08/08 10:34:09;;;;;;;0.10;0.10;;;;;;;21.42;83.58;98868.72;5093661;28;20199;-56
2023/08/08 10:36:58;;;;;;;0.00;0.00;;;;;;;20.96;86.87;98879.28;5093237;28;20214;-56
2023/08/08 10:39:54;;;;;;;0.10;0.10;;;;;;;20.73;87.96;98862.97;5093547;28;20194;-56
2023/08/08 10:42:45;;;;;;;0.10;0.10;;;;;;;21.06;86.95;98863.78;5093607;28;20265;-56
2023/08/08 10:45:32;;;;;;;0.10;0.10;;;;;;;21.11;90.28;98864.09;5092159;28;20203;-56
2023/08/08 10:48:20;;;;;;;0.10;0.10;;;;;;;21.28;91.81;98864.91;5093492;28;20198;-56
2023/08/08 10:51:07;;;;;;;0.10;0.10;;;;;;;20.45;90.75;98859.78;5093423;28;20298;-56
2023/08/08 10:53:54;;;;;;;0.10;0.10;;;;;;;20.33;93.84;98853.03;5093369;28;20316;-56
2023/08/08 10:56:49;;;;;;;0.10;0.10;;;;;;;20.35;94.95;98855.56;5093310;28;20229;-56
2023/08/08 10:59:38;;;;;;;0.10;0.10;;;;;;;20.48;94.96;98864.03;5093405;28;20203;-56
2023/08/08 11:02:25;;;;;;;0.10;0.10;;;;;;;20.66;94.89;98851.22;5093217;28;20191;-56
2023/08/08 11:05:13;;;;;;;0.10;0.10;;;;;;;20.76;96.39;98851.88;5092938;28;20234;-56
2023/08/08 11:08:00;;;;;;;0.07;0.07;;;;;;;21.29;92.77;98858.50;5092946;28;20230;-56
2023/08/08 11:10:52;;;;;;;0.10;0.10;;;;;;;21.92;85.94;98848.63;5093185;28;20187;-56
2023/08/08 11:13:40;;;;;;;0.10;0.10;;;;;;;22.17;83.75;98868.19;5092606;28;20191;-56
2023/08/08 11:16:27;;;;;;;0.10;0.10;;;;;;;22.10;77.41;98851.91;5091845;28;20203;-56
2023/08/08 11:19:15;;;;;;;0.00;0.00;;;;;;;22.05;74.66;98866.91;5093133;28;20199;-56
2023/08/08 11:22:11;;;;;;;0.10;0.10;;;;;;;22.02;77.03;98851.09;5092870;28;20190;-56
2023/08/08 11:25:03;;;;;;;0.10;0.10;;;;;;;22.20;78.04;98857.91;5093020;28;20198;-56
2023/08/08 11:27:51;;;;;;;0.10;0.10;;;;;;;22.69;70.98;98846.69;5092745;28;20578;-56
2023/08/08 11:30:42;;;;;;;0.10;0.10;;;;;;;22.71;69.31;98843.81;5091680;28;20211;-56
2023/08/08 11:33:29;;;;;;;0.00;0.00;;;;;;;23.01;64.98;98855.50;5092986;28;20233;-56
2023/08/08 11:36:16;;;;;;;0.10;0.10;;;;;;;22.28;71.12;98847.00;5095930;28;20230;-56
2023/08/08 11:39:07;;;;;;;0.10;0.10;;;;;;;21.96;75.59;98842.66;5097047;28;20194;-56
2023/08/08 11:41:55;;;;;;;0.10;0.10;;;;;;;22.04;75.93;98855.28;5096926;28;20326;-56
2023/08/08 11:44:45;;;;;;;0.10;0.10;;;;;;;22.39;72.78;98853.00;5096915;28;20205;-57
2023/08/08 11:47:36;;;;;;;0.10;0.10;;;;;;;23.52;63.97;98850.19;5095614;28;20222;-57
2023/08/08 11:50:24;;;;;;;0.00;0.00;;;;;;;24.57;59.55;98850.53;5096756;28;20191;-56
2023/08/08 11:53:11;;;;;;;0.00;0.00;;;;;;;24.64;57.10;98853.31;5096621;28;20190;-57
2023/08/08 11:56:00;;;;;;;0.05;0.05;;;;;;;24.49;56.67;98848.78;5096648;28;20308;-56
2023/08/08 11:58:48;;;;;;;0.00;0.00;;;;;;;23.89;60.16;98844.63;5096736;28;20194;-56
2023/08/08 12:01:36;;;;;;;0.10;0.10;;;;;;;23.26;60.83;98846.13;5095066;28;20191;-56
2023/08/08 12:04:25;;;;;;;0.00;0.00;;;;;;;23.38;63.24;98832.97;5096543;28;20199;-56
2023/08/08 12:07:13;;;;;;;0.10;0.10;;;;;;;22.87;64.64;98830.16;5096383;28;20210;-56
2023/08/08 12:10:00;;;;;;;0.00;0.00;;;;;;;22.39;67.83;98845.78;5096224;28;20719;-56
2023/08/08 12:12:48;;;;;;;0.00;0.00;;;;;;;21.55;76.64;98841.22;5096502;28;20194;-57
2023/08/08 12:15:36;;;;;;;0.00;0.00;;;;;;;21.34;79.62;98848.06;5095036;28;20242;-56
2023/08/08 12:18:23;;;;;;;0.10;0.10;;;;;;;21.10;78.51;98850.78;5096201;28;20261;-56
2023/08/08 12:21:11;;;;;;;0.10;0.10;;;;;;;21.31;77.48;98834.91;5096280;28;20289;-56
2023/08/08 12:23:58;;;;;;;0.00;0.00;;;;;;;21.24;74.64;98841.16;5096243;28;20187;-56
2023/08/08 12:26:45;;;;;;;0.00;0.00;;;;;;;20.87;77.89;98845.31;5095936;28;20214;-56
2023/08/08 12:29:32;;;;;;;0.10;0.10;;;;;;;21.30;80.48;98844.00;5096079;28;20317;-56
2023/08/08 12:32:23;;;;;;;0.10;0.10;;;;;;;22.13;78.37;98848.84;5096048;28;20202;-56
2023/08/08 12:35:10;;;;;;;0.00;0.00;;;;;;;21.57;74.10;98837.34;5095565;28;20338;-56
2023/08/08 12:37:58;;;;;;;0.00;0.00;;;;;;;22.33;70.98;98843.78;5095869;28;20191;-56
2023/08/08 12:40:46;;;;;;;0.00;0.00;;;;;;;22.41;67.45;98843.72;5095868;28;20321;-56
2023/08/08 12:43:34;;;;;;;0.00;0.00;;;;;;;22.80;68.13;98843.53;5095851;28;20233;-56
2023/08/08 12:46:21;;;;;;;0.10;0.10;;;;;;;22.74;66.57;98848.81;5094183;28;20209;-56
2023/08/08 12:49:08;;;;;;;0.10;0.10;;;;;;;22.41;68.09;98849.13;5095837;28;20199;-57
2023/08/08 12:51:55;;;;;;;0.00;0.00;;;;;;;22.39;70.76;98845.78;5095768;28;20205;-56
2023/08/08 12:54:43;;;;;;;0.10;0.10;;;;;;;21.61;71.22;98851.28;5095444;28;20237;-56
2023/08/08 12:57:30;;;;;;;0.10;0.10;;;;;;;20.95;78.80;98856.06;5095560;28;20195;-56
2023/08/08 13:00:17;;;;;;;0.10;0.10;;;;;;;20.70;80.97;98855.25;5094082;28;20281;-56
2023/08/08 13:03:05;;;;;;;0.10;0.10;;;;;;;20.73;83.24;98852.22;5095475;28;20190;-56